Time;durP1;ratioP1;P1;durP2;ratioP2;P2;SDS_P1;SDS_P2;PMS_P1;PMS_P2;Temp;Humidity;BMP_temperature;BMP_pressure;BME280_temperature;BME280_humidity;BME280_pressure;Samples;Min_cycle;Max_cycle;Signal;HPM_P1;HPM_P2
2024/01/25 00:01:59;;;;;;;8.07;3.25;;;;;;;9.06;56.49;99678.97;5126674;28;20157;-69
2024/01/25 00:04:26;;;;;;;11.82;3.80;;;;;;;9.07;56.34;99676.28;5127070;28;20040;-70
2024/01/25 00:06:54;;;;;;;9.23;4.43;;;;;;;9.04;56.36;99660.53;5126723;28;20085;-70
2024/01/25 00:09:21;;;;;;;11.80;3.35;;;;;;;9.03;56.28;99666.75;5127049;28;20047;-70
2024/01/25 00:11:47;;;;;;;8.18;2.85;;;;;;;9.01;56.26;99671.25;5126977;28;20279;-70
2024/01/25 00:14:14;;;;;;;11.23;4.20;;;;;;;9.03;56.54;99665.91;5126907;28;20040;-71
2024/01/25 00:16:41;;;;;;;11.20;3.55;;;;;;;9.05;56.31;99664.91;5127194;28;20048;-71
2024/01/25 00:19:08;;;;;;;6.60;2.80;;;;;;;8.98;56.55;99674.03;5127131;28;20036;-71
2024/01/25 00:21:35;;;;;;;6.00;2.85;;;;;;;8.98;56.40;99679.31;5126529;28;20043;-71
2024/01/25 00:24:03;;;;;;;8.18;3.92;;;;;;;8.97;56.57;99689.03;5126663;28;20051;-71
2024/01/25 00:26:29;;;;;;;9.30;3.20;;;;;;;8.97;56.53;99672.31;5126462;28;20035;-71
2024/01/25 00:28:56;;;;;;;6.55;3.00;;;;;;;9.00;56.53;99685.41;5125795;28;20044;-72
2024/01/25 00:31:23;;;;;;;7.00;3.40;;;;;;;8.95;56.49;99698.81;5126662;28;20107;-71
2024/01/25 00:33:49;;;;;;;8.98;3.28;;;;;;;8.94;56.57;99697.09;5126633;28;20055;-71
2024/01/25 00:36:17;;;;;;;8.55;3.42;;;;;;;8.96;56.31;99691.75;5126292;28;20189;-71
2024/01/25 00:38:46;;;;;;;8.98;2.85;;;;;;;8.99;56.37;99696.91;5125488;28;20097;-71
2024/01/25 00:41:18;;;;;;;9.13;3.35;;;;;;;7.23;56.29;99401.59;5126517;28;20043;-71
2024/01/25 00:43:46;;;;;;;8.50;3.15;;;;;;;8.92;56.44;99692.78;5125383;28;20193;-71
2024/01/25 00:46:13;;;;;;;9.73;2.80;;;;;;;8.90;56.64;99671.72;5126592;28;20040;-71
2024/01/25 00:48:42;;;;;;;7.93;3.70;;;;;;;8.92;56.75;99687.50;5126458;28;20108;-71
2024/01/25 00:51:15;;;;;;;10.88;3.75;;;;;;;8.91;56.72;99706.94;5126568;28;20063;-70
2024/01/25 00:53:42;;;;;;;10.32;3.97;;;;;;;8.90;56.86;99708.72;5126612;28;20043;-71
2024/01/25 00:56:10;;;;;;;9.18;3.47;;;;;;;8.90;56.67;99711.38;5126437;28;20296;-71
2024/01/25 00:58:39;;;;;;;7.65;2.72;;;;;;;8.89;56.57;99693.78;5126354;28;20039;-71
2024/01/25 01:01:07;;;;;;;8.70;3.17;;;;;;;8.86;56.72;99706.28;5126345;28;20043;-71
2024/01/25 01:03:34;;;;;;;12.65;3.53;;;;;;;8.86;56.91;99699.19;5125490;28;20052;-71
2024/01/25 01:06:01;;;;;;;9.55;2.80;;;;;;;8.59;56.75;99666.03;5126224;28;20046;-71
2024/01/25 01:08:28;;;;;;;10.63;3.35;;;;;;;8.85;56.47;99707.19;5126209;28;20166;-70
2024/01/25 01:10:55;;;;;;;8.45;2.60;;;;;;;8.83;56.50;99698.47;5126227;28;20052;-71
2024/01/25 01:13:22;;;;;;;6.53;2.97;;;;;;;8.80;56.55;99706.53;5126452;28;20088;-71
2024/01/25 01:15:50;;;;;;;7.35;3.28;;;;;;;8.35;56.44;99626.50;5125936;28;20039;-71
2024/01/25 01:18:16;;;;;;;11.18;3.28;;;;;;;8.77;56.27;99731.31;5126109;28;20300;-71
2024/01/25 01:20:43;;;;;;;7.80;2.45;;;;;;;8.78;56.39;99695.16;5126127;28;20069;-71
2024/01/25 01:23:10;;;;;;;6.68;3.10;;;;;;;8.76;56.22;99712.88;5126068;28;20050;-71
2024/01/25 01:25:36;;;;;;;11.68;3.35;;;;;;;8.78;55.96;99692.53;5126303;28;20043;-71
2024/01/25 01:28:03;;;;;;;9.30;3.03;;;;;;;8.75;56.26;99722.59;5126048;28;20055;-72
2024/01/25 01:30:30;;;;;;;8.00;3.53;;;;;;;8.74;55.95;99706.78;5125742;28;20048;-71
2024/01/25 01:32:58;;;;;;;6.90;3.42;;;;;;;8.71;55.90;99694.56;5126300;28;20101;-71
2024/01/25 01:35:24;;;;;;;11.20;2.78;;;;;;;8.70;56.07;99692.84;5125722;28;20048;-71
2024/01/25 01:37:51;;;;;;;10.80;3.45;;;;;;;8.71;56.11;99693.72;5124878;28;20238;-71
2024/01/25 01:40:18;;;;;;;8.18;3.35;;;;;;;7.62;55.91;99523.97;5125927;28;20051;-71
2024/01/25 01:42:44;;;;;;;8.50;3.25;;;;;;;8.66;56.01;99699.19;5125934;28;20047;-71
2024/01/25 01:45:12;;;;;;;7.18;3.70;;;;;;;8.65;55.51;99708.91;5125596;28;20031;-72
2024/01/25 01:47:39;;;;;;;6.97;2.90;;;;;;;8.40;55.67;99676.50;5126187;28;20063;-72
2024/01/25 01:50:10;;;;;;;10.15;2.75;;;;;;;8.09;55.72;99623.22;5124709;28;20092;-71
2024/01/25 01:52:37;;;;;;;9.88;3.67;;;;;;;8.64;55.57;99706.31;5125649;28;20307;-71
2024/01/25 01:55:05;;;;;;;8.88;3.17;;;;;;;8.64;55.82;99706.31;5125793;28;20055;-71
2024/01/25 01:57:32;;;;;;;16.55;3.55;;;;;;;8.62;55.69;99700.25;5126104;28;20085;-71
2024/01/25 02:00:03;;;;;;;11.57;4.93;;;;;;;8.62;55.83;99722.25;5129111;28;20040;-70
2024/01/25 02:02:30;;;;;;;9.18;3.47;;;;;;;8.62;55.81;99697.59;5129655;28;20032;-70
2024/01/25 02:04:57;;;;;;;7.13;2.72;;;;;;;8.61;55.85;99696.75;5129127;28;20361;-70
2024/01/25 02:07:25;;;;;;;8.05;2.92;;;;;;;8.58;55.88;99688.94;5129090;28;20121;-70
2024/01/25 02:09:51;;;;;;;9.90;3.42;;;;;;;8.59;55.81;99679.22;5128547;28;20088;-71
2024/01/25 02:12:18;;;;;;;7.40;3.05;;;;;;;8.58;55.90;99681.00;5129329;28;20044;-71
2024/01/25 02:14:45;;;;;;;7.13;3.47;;;;;;;8.59;55.81;99689.81;5129218;28;20043;-71
2024/01/25 02:17:11;;;;;;;12.90;3.22;;;;;;;8.58;55.91;99685.44;5129564;28;20051;-71
2024/01/25 02:19:38;;;;;;;7.38;2.85;;;;;;;8.34;55.92;99650.34;5129781;28;20172;-71
2024/01/25 02:22:06;;;;;;;8.95;3.08;;;;;;;8.53;56.02;99669.78;5129148;28;20055;-71
2024/01/25 02:24:34;;;;;;;13.05;4.45;;;;;;;8.56;56.04;99685.50;5127896;28;20048;-71
2024/01/25 02:27:01;;;;;;;11.02;3.28;;;;;;;8.54;56.11;99682.06;5128740;28;20043;-71
2024/01/25 02:29:28;;;;;;;9.73;3.13;;;;;;;8.53;56.04;99671.56;5128726;28;20238;-71
2024/01/25 02:31:54;;;;;;;10.40;2.95;;;;;;;8.51;56.05;99676.91;5128955;28;20062;-70
2024/01/25 02:34:21;;;;;;;8.80;3.13;;;;;;;8.54;56.06;99703.19;5128882;28;20054;-71
2024/01/25 02:36:48;;;;;;;9.75;3.00;;;;;;;8.50;56.11;99672.53;5128841;28;20036;-71
2024/01/25 02:39:14;;;;;;;8.32;4.15;;;;;;;8.55;56.21;99690.84;5129063;28;20097;-71
2024/01/25 02:41:42;;;;;;;8.20;3.00;;;;;;;8.50;56.32;99669.91;5129277;28;20243;-71
2024/01/25 02:44:09;;;;;;;7.88;3.63;;;;;;;8.51;56.24;99684.84;5128721;28;20195;-71
2024/01/25 02:46:35;;;;;;;8.43;3.08;;;;;;;8.51;56.28;99690.13;5127460;28;20304;-71
2024/01/25 02:49:02;;;;;;;9.80;3.17;;;;;;;8.52;56.37;99681.28;5128370;28;20043;-71
2024/01/25 02:51:29;;;;;;;11.13;3.42;;;;;;;8.48;56.16;99695.53;5128562;28;20044;-71
2024/01/25 02:53:55;;;;;;;9.57;3.70;;;;;;;8.51;56.15;99694.53;5128539;28;20100;-69
2024/01/25 02:56:22;;;;;;;6.65;3.25;;;;;;;8.48;56.04;99686.75;5128519;28;20035;-69
2024/01/25 02:58:49;;;;;;;7.18;2.70;;;;;;;8.44;55.86;99675.44;5127857;28;20040;-69
2024/01/25 03:01:16;;;;;;;7.80;3.08;;;;;;;8.47;56.00;99666.53;5128569;28;20052;-70
2024/01/25 03:03:42;;;;;;;12.63;3.15;;;;;;;8.46;56.08;99680.66;5128351;28;20043;-69
2024/01/25 03:06:09;;;;;;;9.57;3.45;;;;;;;8.42;55.85;99679.06;5127933;28;20092;-70
2024/01/25 03:08:36;;;;;;;8.27;3.10;;;;;;;8.42;55.89;99673.78;5128487;28;20338;-69
2024/01/25 03:11:04;;;;;;;10.68;3.13;;;;;;;8.43;55.99;99670.22;5126729;28;20077;-70
2024/01/25 03:13:31;;;;;;;7.65;2.60;;;;;;;8.42;55.91;99663.22;5127891;28;20035;-69
2024/01/25 03:15:59;;;;;;;7.63;3.33;;;;;;;8.43;55.96;99664.94;5127829;28;20193;-69
2024/01/25 03:18:25;;;;;;;8.18;3.30;;;;;;;8.38;55.44;99657.22;5128294;28;20084;-69
2024/01/25 03:20:52;;;;;;;11.35;4.53;;;;;;;8.35;55.38;99655.56;5127985;28;20043;-69
2024/01/25 03:23:19;;;;;;;6.40;3.42;;;;;;;7.80;55.33;99574.25;5127994;28;20112;-69
2024/01/25 03:25:45;;;;;;;11.52;3.78;;;;;;;7.99;55.54;99591.91;5127557;28;20050;-70
2024/01/25 03:28:13;;;;;;;10.02;3.90;;;;;;;8.34;55.79;99658.25;5128151;28;20035;-69
2024/01/25 03:30:40;;;;;;;10.75;4.22;;;;;;;8.35;55.66;99659.97;5126742;28;20224;-70
2024/01/25 03:33:08;;;;;;;6.90;3.05;;;;;;;8.34;55.97;99677.59;5127755;28;20054;-69
2024/01/25 03:35:35;;;;;;;9.63;3.15;;;;;;;8.36;56.08;99693.38;5127484;28;20040;-69
2024/01/25 03:38:01;;;;;;;6.45;3.25;;;;;;;8.32;56.25;99655.69;5127450;28;20047;-69
2024/01/25 03:40:28;;;;;;;9.52;3.70;;;;;;;8.33;56.50;99675.03;5127612;28;20065;-69
2024/01/25 03:42:55;;;;;;;7.68;3.10;;;;;;;8.32;56.85;99657.47;5127876;28;20050;-69
2024/01/25 03:45:21;;;;;;;9.73;3.13;;;;;;;8.31;57.10;99669.81;5127727;28;20296;-70
2024/01/25 03:47:47;;;;;;;10.32;3.42;;;;;;;8.26;57.04;99655.06;5127450;28;20088;-69
2024/01/25 03:50:15;;;;;;;7.07;2.72;;;;;;;8.33;57.13;99706.72;5126348;28;20039;-70
2024/01/25 03:52:42;;;;;;;5.43;2.72;;;;;;;8.33;57.21;99649.47;5127124;28;20051;-69
2024/01/25 03:55:09;;;;;;;6.07;2.95;;;;;;;8.30;57.35;99664.59;5127420;28;20088;-69
2024/01/25 03:57:36;;;;;;;8.20;2.83;;;;;;;8.29;57.50;99671.66;5127330;28;20043;-70
2024/01/25 04:00:04;;;;;;;7.43;2.88;;;;;;;8.28;57.64;99656.72;5127334;28;20203;-69
2024/01/25 04:02:30;;;;;;;7.72;3.90;;;;;;;8.11;57.46;99629.28;5126927;28;20043;-69
2024/01/25 04:04:57;;;;;;;7.15;2.88;;;;;;;8.28;57.65;99655.88;5127156;28;20114;-69
2024/01/25 04:07:25;;;;;;;11.82;4.07;;;;;;;8.26;57.90;99671.78;5125762;28;20048;-70
2024/01/25 04:09:52;;;;;;;6.05;2.60;;;;;;;8.23;57.86;99669.25;5127134;28;20183;-69
2024/01/25 04:12:18;;;;;;;7.07;3.47;;;;;;;8.25;57.69;99664.78;5127039;28;20043;-69
2024/01/25 04:14:45;;;;;;;8.90;3.30;;;;;;;8.24;57.84;99676.25;5125870;28;20096;-68
2024/01/25 04:17:12;;;;;;;8.13;3.25;;;;;;;8.24;57.65;99676.25;5126976;28;20039;-69
2024/01/25 04:19:38;;;;;;;8.48;3.05;;;;;;;8.20;57.84;99674.66;5126765;28;20047;-69
2024/01/25 04:22:05;;;;;;;4.78;2.92;;;;;;;8.16;57.86;99661.66;5126792;28;20245;-69
2024/01/25 04:24:33;;;;;;;8.02;3.33;;;;;;;8.22;57.98;99666.69;5126822;28;20073;-69
2024/01/25 04:27:00;;;;;;;8.55;3.05;;;;;;;8.20;57.84;99658.81;5126422;28;20355;-69
2024/01/25 04:29:27;;;;;;;10.23;4.72;;;;;;;8.16;57.79;99667.78;5126454;28;20043;-69
2024/01/25 04:31:53;;;;;;;10.18;3.20;;;;;;;8.19;57.98;99664.16;5126720;28;20044;-68
2024/01/25 04:34:20;;;;;;;5.47;2.95;;;;;;;8.16;57.84;99666.94;5126685;28;20092;-69
2024/01/25 04:36:46;;;;;;;9.23;3.28;;;;;;;8.18;57.80;99673.00;5125814;28;20047;-69
2024/01/25 04:39:14;;;;;;;10.50;3.83;;;;;;;8.15;57.90;99674.00;5126546;28;20062;-68
2024/01/25 04:41:42;;;;;;;24.70;12.18;;;;;;;8.28;60.06;99671.72;5126786;28;20070;-68
2024/01/25 04:44:08;;;;;;;20.40;11.80;;;;;;;8.40;60.04;99671.22;5126473;28;20063;-69
2024/01/25 04:46:37;;;;;;;12.40;5.28;;;;;;;8.07;58.23;99647.03;5126380;28;20050;-69
2024/01/25 04:49:04;;;;;;;8.50;3.90;;;;;;;8.24;58.01;99680.69;5126329;28;20050;-70
2024/01/25 04:51:30;;;;;;;10.65;3.80;;;;;;;8.20;57.74;99698.44;5126738;28;20234;-70
2024/01/25 04:53:57;;;;;;;9.93;3.60;;;;;;;8.19;57.79;99695.84;5126108;28;20043;-69
2024/01/25 04:56:24;;;;;;;9.23;3.20;;;;;;;8.16;57.95;99670.44;5126574;28;20035;-69
2024/01/25 04:58:52;;;;;;;9.65;3.60;;;;;;;8.18;57.89;99675.66;5126531;28;20048;-69
2024/01/25 05:01:18;;;;;;;9.82;3.97;;;;;;;8.16;57.76;99681.00;5126234;28;20112;-69
2024/01/25 05:03:45;;;;;;;10.73;3.47;;;;;;;8.15;57.83;99659.94;5126533;28;20040;-70
2024/01/25 05:06:11;;;;;;;10.18;4.30;;;;;;;8.13;57.85;99673.19;5125674;28;20085;-69
2024/01/25 05:08:38;;;;;;;9.98;3.50;;;;;;;8.11;57.65;99659.19;5126480;28;20185;-69
2024/01/25 05:11:05;;;;;;;12.32;3.67;;;;;;;8.12;57.95;99682.03;5125922;28;20043;-69
2024/01/25 05:13:32;;;;;;;11.13;3.20;;;;;;;8.11;57.88;99660.97;5126123;28;20054;-70
2024/01/25 05:16:00;;;;;;;12.63;3.75;;;;;;;8.11;58.11;99659.19;5124991;28;20242;-69
2024/01/25 05:18:26;;;;;;;9.55;2.90;;;;;;;8.09;58.07;99649.63;5126079;28;20051;-69
2024/01/25 05:20:54;;;;;;;9.63;2.97;;;;;;;8.11;58.07;99645.13;5126094;28;20055;-69
2024/01/25 05:23:21;;;;;;;11.88;3.50;;;;;;;8.09;58.03;99657.53;5125887;28;20185;-73
2024/01/25 05:25:48;;;;;;;8.55;3.17;;;;;;;8.09;58.19;99658.41;5125688;28;20042;-70
2024/01/25 05:28:14;;;;;;;9.73;3.78;;;;;;;8.07;58.37;99656.75;5126302;28;20106;-69
2024/01/25 05:30:41;;;;;;;11.73;3.47;;;;;;;8.08;58.30;99653.19;5125964;28;20152;-69
2024/01/25 05:33:09;;;;;;;9.68;3.78;;;;;;;8.05;58.30;99653.31;5126396;28;20280;-70
2024/01/25 05:35:35;;;;;;;6.90;3.13;;;;;;;8.03;58.22;99635.75;5129770;28;20047;-69
2024/01/25 05:38:02;;;;;;;10.10;3.80;;;;;;;8.05;58.25;99642.75;5129705;28;20047;-69
2024/01/25 05:40:29;;;;;;;9.45;3.05;;;;;;;8.06;58.31;99615.44;5129925;28;20039;-69
2024/01/25 05:42:55;;;;;;;9.60;3.47;;;;;;;8.02;58.53;99622.63;5129878;28;20055;-69
2024/01/25 05:45:23;;;;;;;7.38;2.90;;;;;;;8.04;58.44;99620.78;5130172;28;20051;-69
2024/01/25 05:47:50;;;;;;;10.27;3.83;;;;;;;8.01;58.41;99627.03;5129746;28;20055;-72
2024/01/25 05:50:18;;;;;;;9.90;3.70;;;;;;;8.01;58.39;99632.31;5129477;28;20051;-70
2024/01/25 05:52:45;;;;;;;10.90;4.20;;;;;;;7.98;58.48;99615.75;5130000;28;20268;-69
2024/01/25 05:55:13;;;;;;;12.00;3.85;;;;;;;7.79;58.42;99591.88;5129748;28;20039;-69
2024/01/25 05:57:40;;;;;;;11.65;3.30;;;;;;;7.97;58.44;99606.97;5129689;28;20177;-69
2024/01/25 06:00:08;;;;;;;10.50;3.85;;;;;;;7.73;58.33;99602.66;5129890;28;20051;-69
2024/01/25 06:02:35;;;;;;;7.18;3.28;;;;;;;7.68;58.36;99576.47;5129731;28;20097;-69
2024/01/25 06:05:02;;;;;;;7.63;3.45;;;;;;;7.93;58.41;99609.78;5129754;28;20325;-69
2024/01/25 06:07:30;;;;;;;11.25;3.40;;;;;;;7.77;58.37;99585.78;5128984;28;20047;-71
2024/01/25 06:09:57;;;;;;;6.88;3.15;;;;;;;7.70;58.30;99598.38;5129101;28;20058;-71
2024/01/25 06:12:23;;;;;;;9.90;3.92;;;;;;;7.93;58.23;99628.25;5129363;28;20043;-69
2024/01/25 06:14:52;;;;;;;14.25;4.72;;;;;;;7.89;58.25;99653.06;5128986;28;20043;-69
2024/01/25 06:17:19;;;;;;;12.73;4.25;;;;;;;7.89;58.18;99646.00;5128080;28;20070;-71
2024/01/25 06:19:45;;;;;;;10.35;3.22;;;;;;;7.93;58.22;99649.38;5129243;28;20039;-70
2024/01/25 06:22:12;;;;;;;6.65;3.28;;;;;;;7.90;58.32;99654.78;5129403;28;20097;-69
2024/01/25 06:24:40;;;;;;;9.05;3.45;;;;;;;7.86;58.60;99655.81;5128790;28;20048;-69
2024/01/25 06:27:07;;;;;;;7.22;3.60;;;;;;;7.65;58.66;99624.06;5128850;28;20192;-69
2024/01/25 06:29:33;;;;;;;9.88;3.80;;;;;;;7.83;58.34;99650.66;5129239;28;20043;-69
2024/01/25 06:32:00;;;;;;;9.13;3.95;;;;;;;7.85;58.26;99657.59;5128908;28;20062;-70
2024/01/25 06:34:27;;;;;;;9.50;4.00;;;;;;;7.82;58.09;99649.78;5129130;28;20043;-70
2024/01/25 06:36:53;;;;;;;11.13;4.32;;;;;;;7.82;58.16;99657.72;5127689;28;20204;-70
2024/01/25 06:39:20;;;;;;;10.55;4.07;;;;;;;7.83;58.14;99667.34;5128781;28;20048;-72
2024/01/25 06:41:48;;;;;;;7.43;3.65;;;;;;;7.83;58.09;99680.53;5128833;28;20093;-70
2024/01/25 06:44:15;;;;;;;13.02;3.38;;;;;;;7.82;58.16;99684.09;5128504;28;20043;-69
2024/01/25 06:46:41;;;;;;;7.85;4.10;;;;;;;7.82;58.18;99685.88;5128835;28;20040;-70
2024/01/25 06:49:08;;;;;;;9.68;3.00;;;;;;;7.72;58.57;99700.34;5128773;28;20043;-70
2024/01/25 06:51:35;;;;;;;7.68;3.67;;;;;;;7.75;58.45;99694.94;5128604;28;20043;-70
2024/01/25 06:54:01;;;;;;;10.27;3.83;;;;;;;7.79;58.44;99694.78;5128524;28;20051;-70
2024/01/25 06:56:28;;;;;;;13.20;4.20;;;;;;;7.61;58.58;99675.22;5128113;28;20292;-70
2024/01/25 06:58:56;;;;;;;6.63;3.45;;;;;;;7.78;58.41;99703.59;5127150;28;20040;-69
2024/01/25 07:01:23;;;;;;;7.20;3.33;;;;;;;7.79;58.34;99709.75;5128298;28;20051;-71
2024/01/25 07:03:50;;;;;;;10.07;4.05;;;;;;;7.59;58.30;99674.44;5128413;28;20040;-70
2024/01/25 07:06:18;;;;;;;9.98;4.10;;;;;;;7.56;58.57;99681.59;5128032;28;20067;-70
2024/01/25 07:08:44;;;;;;;10.95;4.82;;;;;;;7.80;58.54;99716.75;5127823;28;20131;-70
2024/01/25 07:11:11;;;;;;;8.65;3.50;;;;;;;7.80;58.48;99727.28;5128017;28;20089;-70
2024/01/25 07:13:38;;;;;;;16.50;4.30;;;;;;;7.63;58.47;99693.63;5128183;28;20055;-70
2024/01/25 07:16:07;;;;;;;7.68;3.05;;;;;;;7.81;58.33;99714.03;5128120;28;20100;-70
2024/01/25 07:18:34;;;;;;;12.63;3.70;;;;;;;7.80;58.33;99725.53;5128236;28;20344;-70
2024/01/25 07:21:00;;;;;;;11.27;4.38;;;;;;;7.80;58.39;99727.28;5128674;28;20044;-70
2024/01/25 07:23:27;;;;;;;8.75;3.20;;;;;;;7.80;58.44;99716.75;5127961;28;20043;-70
2024/01/25 07:25:54;;;;;;;9.05;3.03;;;;;;;7.78;58.48;99722.06;5128066;28;20074;-70
2024/01/25 07:28:20;;;;;;;9.35;4.13;;;;;;;7.77;58.33;99720.34;5128617;28;20089;-70
2024/01/25 07:30:47;;;;;;;7.47;3.80;;;;;;;7.80;58.30;99711.47;5127909;28;20051;-70
2024/01/25 07:33:15;;;;;;;9.77;4.30;;;;;;;7.79;58.50;99734.34;5128180;28;20096;-70
2024/01/25 07:35:45;;;;;;;11.13;3.67;;;;;;;7.75;58.77;99737.16;5127428;28;20040;-70
2024/01/25 07:38:12;;;;;;;11.43;4.03;;;;;;;7.68;58.65;99696.97;5127518;28;20097;-70
2024/01/25 07:40:39;;;;;;;12.20;4.43;;;;;;;7.72;58.75;99735.50;5128841;28;20039;-70
2024/01/25 07:43:05;;;;;;;10.93;3.67;;;;;;;7.77;58.65;99737.97;5127622;28;20043;-70
2024/01/25 07:45:32;;;;;;;8.88;3.60;;;;;;;7.54;58.63;99708.03;5129016;28;20051;-70
2024/01/25 07:47:59;;;;;;;7.40;3.38;;;;;;;7.52;58.91;99728.31;5128458;28;20086;-70
2024/01/25 07:50:27;;;;;;;9.85;3.42;;;;;;;7.69;58.70;99757.59;5127966;28;20044;-70
2024/01/25 07:52:55;;;;;;;11.15;3.55;;;;;;;7.72;58.57;99755.75;5127079;28;20040;-70
2024/01/25 07:55:22;;;;;;;9.95;3.47;;;;;;;7.66;58.17;99760.34;5127572;28;20054;-70
2024/01/25 07:57:49;;;;;;;10.35;4.35;;;;;;;7.70;58.41;99775.13;5126317;28;20039;-70
2024/01/25 08:00:16;;;;;;;8.98;3.80;;;;;;;7.69;57.96;99772.56;5127234;28;20043;-70
2024/01/25 08:02:44;;;;;;;8.57;3.63;;;;;;;7.68;57.87;99790.16;5127347;28;20231;-70
2024/01/25 08:05:12;;;;;;;11.27;3.63;;;;;;;7.62;57.81;99773.69;5127770;28;20054;-70
2024/01/25 08:07:40;;;;;;;10.00;3.78;;;;;;;7.69;57.48;99777.81;5126895;28;20330;-70
2024/01/25 08:10:08;;;;;;;10.00;3.58;;;;;;;7.70;56.94;99775.13;5127488;27;20040;-70
2024/01/25 08:12:35;;;;;;;7.65;3.80;;;;;;;7.69;56.88;99777.81;5126727;28;20063;-70
2024/01/25 08:15:01;;;;;;;9.57;3.58;;;;;;;7.62;56.16;99768.41;5127620;28;20292;-70
2024/01/25 08:17:28;;;;;;;10.45;3.67;;;;;;;7.63;55.81;99792.09;5126000;28;20035;-70
2024/01/25 08:19:55;;;;;;;7.05;3.67;;;;;;;7.61;55.31;99775.47;5127133;28;20043;-70
2024/01/25 08:22:21;;;;;;;9.57;3.35;;;;;;;7.66;55.40;99780.56;5126848;28;20062;-71
2024/01/25 08:24:49;;;;;;;5.95;2.85;;;;;;;7.67;54.17;99787.56;5126801;28;20035;-70
2024/01/25 08:27:16;;;;;;;8.65;3.83;;;;;;;7.44;53.50;99742.72;5126778;28;20039;-70
2024/01/25 08:29:42;;;;;;;8.68;3.90;;;;;;;7.68;52.94;99784.03;5126895;28;20059;-70
2024/01/25 08:32:09;;;;;;;11.88;4.40;;;;;;;7.68;53.02;99776.97;5126246;28;20088;-70
2024/01/25 08:34:36;;;;;;;8.93;4.20;;;;;;;7.72;53.20;99772.44;5126437;28;20063;-71
2024/01/25 08:37:02;;;;;;;7.50;3.22;;;;;;;7.01;52.89;99657.22;5126461;28;20047;-70
2024/01/25 08:39:29;;;;;;;11.07;4.10;;;;;;;7.74;52.34;99783.78;5126445;28;20099;-70
2024/01/25 08:42:01;;;;;;;9.65;3.03;;;;;;;7.76;52.14;99796.94;5126182;28;20212;-70
2024/01/25 08:44:28;;;;;;;8.55;3.28;;;;;;;7.73;50.96;99776.78;5126048;28;20254;-71
2024/01/25 08:46:54;;;;;;;8.73;3.90;;;;;;;7.62;50.83;99766.63;5125915;28;20334;-71
2024/01/25 08:49:21;;;;;;;8.68;3.75;;;;;;;7.57;50.88;99770.38;5126292;28;20337;-70
2024/01/25 08:51:48;;;;;;;11.70;3.55;;;;;;;7.77;51.23;99788.97;5126333;28;20048;-71
2024/01/25 08:54:15;;;;;;;15.65;4.57;;;;;;;7.81;51.92;99811.69;5126221;28;20069;-70
2024/01/25 08:56:41;;;;;;;8.20;3.17;;;;;;;7.81;52.63;99777.38;5126362;28;20100;-71
2024/01/25 08:59:09;;;;;;;7.32;3.60;;;;;;;7.82;53.00;99794.94;5126272;28;20051;-70
2024/01/25 09:01:36;;;;;;;8.60;3.45;;;;;;;7.83;52.81;99777.31;5126278;28;20055;-70
2024/01/25 09:04:03;;;;;;;10.23;3.80;;;;;;;7.90;53.00;99771.75;5126202;28;20044;-70
2024/01/25 09:06:30;;;;;;;12.07;4.97;;;;;;;7.84;53.35;99768.47;5126237;28;20239;-70
2024/01/25 09:08:57;;;;;;;11.65;4.05;;;;;;;7.98;53.53;99767.03;5129539;28;20043;-71
2024/01/25 09:11:24;;;;;;;5.90;3.35;;;;;;;7.86;53.68;99764.00;5130189;28;20044;-70
2024/01/25 09:13:51;;;;;;;10.85;3.60;;;;;;;8.16;54.19;99796.31;5130194;28;20096;-70
2024/01/25 09:16:19;;;;;;;12.43;3.97;;;;;;;8.26;54.47;99793.25;5130051;28;20111;-70
2024/01/25 09:18:46;;;;;;;9.73;2.90;;;;;;;8.31;54.12;99799.22;5129992;28;20088;-71
2024/01/25 09:21:13;;;;;;;9.48;3.45;;;;;;;8.34;54.12;99809.66;5130616;28;20051;-70
2024/01/25 09:23:40;;;;;;;10.02;3.33;;;;;;;8.43;53.95;99818.13;5130007;28;20051;-70
2024/01/25 09:26:07;;;;;;;10.15;3.38;;;;;;;8.42;54.06;99833.13;5130124;28;20104;-71
2024/01/25 09:28:33;;;;;;;13.18;4.63;;;;;;;8.07;54.13;99767.63;5130121;28;20043;-70
2024/01/25 09:31:00;;;;;;;12.25;4.50;;;;;;;8.46;53.80;99836.50;5129851;28;20039;-71
2024/01/25 09:33:29;;;;;;;10.13;3.67;;;;;;;8.51;53.82;99845.13;5129758;28;20093;-71
2024/01/25 09:35:56;;;;;;;9.38;3.22;;;;;;;8.35;53.58;99829.00;5129740;28;20160;-70
2024/01/25 09:38:23;;;;;;;7.40;3.00;;;;;;;8.54;53.59;99847.63;5129537;28;20043;-70
2024/01/25 09:40:51;;;;;;;10.23;3.45;;;;;;;8.63;53.23;99847.28;5129477;28;20035;-70
2024/01/25 09:43:19;;;;;;;10.18;3.47;;;;;;;8.74;53.18;99854.78;5130058;28;20082;-71
2024/01/25 09:45:50;;;;;;;10.43;3.15;;;;;;;8.74;52.38;99854.78;5129547;28;20036;-71
2024/01/25 09:48:17;;;;;;;11.25;4.50;;;;;;;8.86;52.20;99833.16;5129306;28;20043;-71
2024/01/25 09:50:48;;;;;;;9.35;3.92;;;;;;;8.08;51.81;99675.16;5129769;28;20051;-70
2024/01/25 09:53:21;;;;;;;9.48;4.70;;;;;;;9.06;51.56;99843.75;5129446;28;20040;-71
2024/01/25 09:55:57;;;;;;;10.40;4.40;;;;;;;9.14;51.65;99852.25;5129185;28;20364;-71
2024/01/25 09:58:26;;;;;;;12.57;4.40;;;;;;;9.15;51.27;99824.88;5129353;28;20084;-71
2024/01/25 10:00:52;;;;;;;11.15;3.92;;;;;;;8.89;51.58;99782.81;5128193;28;20036;-70
2024/01/25 10:03:19;;;;;;;6.55;2.92;;;;;;;8.11;50.89;99653.06;5129301;28;20242;-71
2024/01/25 10:05:47;;;;;;;12.55;4.53;;;;;;;9.22;49.69;99838.72;5129171;28;20039;-71
2024/01/25 10:08:14;;;;;;;9.93;3.42;;;;;;;9.24;49.81;99843.03;5128717;28;20101;-71
2024/01/25 10:10:41;;;;;;;6.68;3.30;;;;;;;9.06;49.34;99808.53;5129158;28;20115;-71
2024/01/25 10:13:13;;;;;;;14.40;3.88;;;;;;;8.59;48.09;99742.63;5129299;28;20043;-71
2024/01/25 10:15:41;;;;;;;8.93;3.42;;;;;;;9.18;48.53;99859.13;5129076;28;20115;-71
2024/01/25 10:18:12;;;;;;;8.70;3.58;;;;;;;9.17;49.50;99873.28;5129039;28;20039;-71
2024/01/25 10:20:40;;;;;;;11.75;4.72;;;;;;;9.14;50.12;99862.81;5128168;27;20051;-71
2024/01/25 10:23:08;;;;;;;9.98;3.83;;;;;;;9.07;50.84;99864.00;5128689;28;20228;-71
2024/01/25 10:25:35;;;;;;;9.48;4.10;;;;;;;7.93;50.79;99667.84;5128827;28;20100;-71
2024/01/25 10:28:03;;;;;;;9.35;3.55;;;;;;;9.09;51.20;99885.09;5128596;28;20040;-71
2024/01/25 10:30:33;;;;;;;10.75;3.28;;;;;;;8.34;51.89;99746.28;5128876;28;20169;-71
2024/01/25 10:33:00;;;;;;;8.57;3.72;;;;;;;8.41;52.39;99773.28;5128814;28;20098;-71
2024/01/25 10:35:27;;;;;;;7.55;4.00;;;;;;;8.99;52.91;99866.09;5127661;28;20035;-71
2024/01/25 10:37:54;;;;;;;8.98;4.22;;;;;;;8.37;53.22;99784.91;5129318;28;20039;-71
2024/01/25 10:40:24;;;;;;;10.82;5.47;;;;;;;8.77;53.27;99820.31;5127504;28;20036;-71
2024/01/25 10:42:51;;;;;;;8.88;3.55;;;;;;;9.01;53.13;99851.03;5129346;28;20051;-71
2024/01/25 10:45:18;;;;;;;10.15;3.67;;;;;;;8.87;53.24;99835.72;5128573;28;20043;-71
2024/01/25 10:47:49;;;;;;;9.10;4.05;;;;;;;9.02;53.24;99847.47;5128434;28;20102;-71
2024/01/25 10:50:15;;;;;;;11.48;3.85;;;;;;;8.81;53.28;99806.91;5128260;28;20253;-71
2024/01/25 10:52:43;;;;;;;10.90;3.55;;;;;;;9.04;53.36;99847.41;5127586;28;20296;-71
2024/01/25 10:55:12;;;;;;;10.25;3.90;;;;;;;9.08;52.99;99838.41;5128440;28;20043;-71
2024/01/25 10:57:43;;;;;;;9.80;4.03;;;;;;;9.14;53.16;99832.88;5128145;28;20308;-71
2024/01/25 11:00:12;;;;;;;11.63;3.67;;;;;;;9.12;53.05;99825.00;5128084;28;20043;-71
2024/01/25 11:02:40;;;;;;;8.90;4.38;;;;;;;9.13;52.96;99826.72;5128600;28;20047;-70
2024/01/25 11:05:09;;;;;;;12.38;5.07;;;;;;;9.10;53.02;99826.84;5127934;28;20307;-71
2024/01/25 11:07:43;;;;;;;10.70;4.95;;;;;;;9.15;52.80;99824.00;5127698;28;20052;-71
2024/01/25 11:10:15;;;;;;;8.65;4.28;;;;;;;9.20;52.61;99830.88;5127838;28;20058;-71
2024/01/25 11:12:52;;;;;;;10.90;4.28;;;;;;;9.02;52.67;99805.16;5128023;28;20089;-71
2024/01/25 11:15:23;;;;;;;10.55;4.88;;;;;;;9.09;52.38;99817.19;5128137;28;20044;-71
2024/01/25 11:17:55;;;;;;;11.40;3.90;;;;;;;9.19;52.21;99826.47;5128332;28;20043;-71
2024/01/25 11:20:23;;;;;;;8.48;3.95;;;;;;;9.21;51.98;99805.28;5126892;28;20181;-71
2024/01/25 11:22:49;;;;;;;10.23;3.65;;;;;;;9.26;51.88;99817.38;5127787;28;20081;-71
2024/01/25 11:25:21;;;;;;;10.23;4.05;;;;;;;9.47;51.44;99812.13;5127860;28;20110;-71
2024/01/25 11:27:50;;;;;;;8.48;3.72;;;;;;;9.57;51.52;99818.75;5127488;28;20066;-71
2024/01/25 11:30:20;;;;;;;9.27;4.97;;;;;;;9.73;50.99;99813.63;5126941;28;20039;-71
2024/01/25 11:32:47;;;;;;;7.60;3.25;;;;;;;9.22;50.63;99717.94;5127220;28;20036;-71
2024/01/25 11:35:16;;;;;;;8.93;4.18;;;;;;;9.86;50.51;99813.00;5127750;28;20151;-72
2024/01/25 11:37:45;;;;;;;8.60;4.93;;;;;;;9.63;50.23;99765.53;5127516;28;20046;-71
2024/01/25 11:40:12;;;;;;;8.85;3.65;;;;;;;9.87;50.04;99806.78;5127540;28;20120;-71